Time;durP1;ratioP1;P1;durP2;ratioP2;P2;SDS_P1;SDS_P2;PMS_P1;PMS_P2;Temp;Humidity;BMP_temperature;BMP_pressure;BME280_temperature;BME280_humidity;BME280_pressure;Samples;Min_cycle;Max_cycle;Signal;HPM_P1;HPM_P2
2023/07/09 00:02:24;;;;;;;8.90;4.43;;;;;;;;;;4992579;28;20034;-60
2023/07/09 00:04:50;;;;;;;10.65;4.90;;;;;;;;;;4990332;28;20049;-60
2023/07/09 00:07:26;;;;;;;10.25;4.75;;;;;;;;;;4996349;28;20534;-60
2023/07/09 00:09:54;;;;;;;7.75;4.47;;;;;;;;;;4987467;28;20038;-60
2023/07/09 00:12:20;;;;;;;11.73;5.05;;;;;;;;;;4981560;28;20041;-60
2023/07/09 00:14:47;;;;;;;7.05;4.40;;;;;;;;;;4992463;28;20033;-60
2023/07/09 00:17:25;;;;;;;9.88;4.57;;;;;;;;;;4998474;28;20048;-60
2023/07/09 00:19:51;;;;;;;9.73;4.18;;;;;;;;;;4987373;28;20392;-60
2023/07/09 00:22:19;;;;;;;9.30;4.35;;;;;;;;;;4985826;28;20400;-59
2023/07/09 00:24:47;;;;;;;8.50;4.78;;;;;;;;;;4987594;28;20176;-60
2023/07/09 00:27:20;;;;;;;9.10;4.73;;;;;;;;;;4991599;28;20046;-60
2023/07/09 00:29:47;;;;;;;8.68;4.70;;;;;;;;;;4991321;28;20320;-60
2023/07/09 00:32:15;;;;;;;9.68;5.28;;;;;;;;;;4994690;28;20042;-60
2023/07/09 00:34:48;;;;;;;10.45;4.65;;;;;;;;;;4998697;28;20035;-60
2023/07/09 00:37:17;;;;;;;13.10;4.90;;;;;;;;;;4995774;28;20022;-60
2023/07/09 00:39:44;;;;;;;;;;;;;;;;;;4970802;28;20411;-60
2023/07/09 00:42:17;;;;;;;13.40;4.50;;;;;;;;;;4994672;28;19925;-60
2023/07/09 00:44:46;;;;;;;10.40;4.63;;;;;;;;;;4992646;28;20033;-60
2023/07/09 00:47:23;;;;;;;10.95;4.90;;;;;;;;;;4991761;28;20037;-60
2023/07/09 00:50:19;;;;;;;7.45;4.38;;;;;;;;;;4969505;28;20387;-60
2023/07/09 00:52:59;;;;;;;10.02;5.07;;;;;;;;;;4973477;28;20053;-60
2023/07/09 00:55:31;;;;;;;12.57;4.78;;;;;;;;;;4994866;28;20034;-60
2023/07/09 00:58:03;;;;;;;8.57;5.10;;;;;;;;;;5004598;28;20053;-60
2023/07/09 01:00:46;;;;;;;11.63;5.20;;;;;;;;;;4990280;28;20041;-60
2023/07/09 01:03:22;;;;;;;8.40;4.85;;;;;;;;;;4981246;28;20043;-60
2023/07/09 01:05:51;;;;;;;8.90;5.05;;;;;;;;;;4988943;28;20046;-60
2023/07/09 01:08:19;;;;;;;8.85;5.05;;;;;;;;;;4993180;28;20592;-60
2023/07/09 01:10:47;;;;;;;10.38;6.00;;;;;;;;;;4996890;28;20034;-60
2023/07/09 01:13:14;;;;;;;8.02;5.38;;;;;;;;;;4992036;28;20419;-60
2023/07/09 01:15:41;;;;;;;11.30;5.38;;;;;;;;;;4992593;28;20057;-60
2023/07/09 01:18:08;;;;;;;11.70;5.00;;;;;;;;;;4987346;28;20035;-60
2023/07/09 01:20:35;;;;;;;11.93;4.70;;;;;;;;;;4994297;28;20048;-60
2023/07/09 01:23:01;;;;;;;8.15;4.70;;;;;;;;;;4988845;28;20042;-60
2023/07/09 01:25:28;;;;;;;12.20;5.72;;;;;;;;;;4990157;28;20042;-61
2023/07/09 01:27:54;;;;;;;10.02;5.15;;;;;;;;;;4989807;28;20037;-59
2023/07/09 01:30:35;;;;;;;8.82;5.28;;;;;;;;;;4994257;28;20053;-60
2023/07/09 01:33:02;;;;;;;8.32;4.63;;;;;;;;;;4986319;28;20056;-60
2023/07/09 01:35:31;;;;;;;12.20;5.63;;;;;;;;;;4987338;28;20041;-60
2023/07/09 01:37:58;;;;;;;10.30;5.30;;;;;;;;;;4989022;28;20032;-60
2023/07/09 01:40:27;;;;;;;9.95;5.25;;;;;;;;;;4991136;28;20034;-60
2023/07/09 01:42:55;;;;;;;10.68;5.70;;;;;;;;;;4982013;28;20051;-60
2023/07/09 01:45:21;;;;;;;11.93;5.35;;;;;;;;;;4992611;28;20042;-60
2023/07/09 01:47:49;;;;;;;10.63;5.28;;;;;;;;;;4993713;28;20046;-61
2023/07/09 01:50:16;;;;;;;14.07;5.20;;;;;;;;;;4989180;28;20037;-60
2023/07/09 01:52:44;;;;;;;18.83;5.75;;;;;;;;;;4990399;28;20026;-60
2023/07/09 01:55:12;;;;;;;9.18;4.97;;;;;;;;;;4993410;28;20396;-60
2023/07/09 01:57:40;;;;;;;11.00;5.63;;;;;;;;;;4997564;28;20038;-60
2023/07/09 02:00:11;;;;;;;13.57;6.07;;;;;;;;;;4984763;28;20054;-60
2023/07/09 02:02:42;;;;;;;11.70;5.45;;;;;;;;;;4999519;28;20045;-60
2023/07/09 02:05:12;;;;;;;15.30;5.63;;;;;;;;;;4998071;28;20499;-61
2023/07/09 02:07:39;;;;;;;16.40;6.05;;;;;;;;;;4999212;28;20057;-60
2023/07/09 02:10:06;;;;;;;13.80;5.40;;;;;;;;;;4988511;28;20058;-60
2023/07/09 02:12:33;;;;;;;11.63;5.10;;;;;;;;;;4993228;28;20038;-59
2023/07/09 02:14:59;;;;;;;15.65;5.80;;;;;;;;;;4986910;28;20484;-60
2023/07/09 02:17:25;;;;;;;10.52;5.68;;;;;;;;;;4993694;28;20404;-59
2023/07/09 02:19:51;;;;;;;10.40;5.68;;;;;;;;;;4973162;28;20043;-60
2023/07/09 02:22:19;;;;;;;12.40;6.40;;;;;;;;;;4989432;28;20038;-60
2023/07/09 02:24:45;;;;;;;12.95;5.63;;;;;;;;;;4968746;28;20045;-60
2023/07/09 02:27:16;;;;;;;11.10;5.28;;;;;;;;;;4994509;28;20530;-60
2023/07/09 02:29:42;;;;;;;15.32;5.50;;;;;;;;;;4978969;28;20038;-60
2023/07/09 02:32:11;;;;;;;13.13;5.22;;;;;;;;;;4997577;28;20046;-60
2023/07/09 02:34:37;;;;;;;9.73;5.22;;;;;;;;;;4999028;28;20038;-60
2023/07/09 02:37:04;;;;;;;14.25;6.07;;;;;;;;;;5003525;28;20399;-60
2023/07/09 02:39:31;;;;;;;13.95;6.57;;;;;;;;;;4990330;28;20042;-60
2023/07/09 02:41:57;;;;;;;13.05;5.75;;;;;;;;;;4992544;28;20035;-60
2023/07/09 02:44:23;;;;;;;15.18;6.55;;;;;;;;;;4992065;28;20045;-60
2023/07/09 02:46:49;;;;;;;17.70;6.28;;;;;;;;;;4993942;28;20038;-60
2023/07/09 02:49:16;;;;;;;12.75;6.05;;;;;;;;;;4990094;28;20049;-60
2023/07/09 02:51:43;;;;;;;12.75;6.15;;;;;;;;;;4986769;28;20057;-60
2023/07/09 02:54:09;;;;;;;12.85;6.45;;;;;;;;;;4993311;28;20050;-60
2023/07/09 02:56:35;;;;;;;18.42;6.65;;;;;;;;;;4973415;28;20558;-60
2023/07/09 02:59:01;;;;;;;10.13;6.15;;;;;;;;;;4980430;28;20102;-59
2023/07/09 03:01:28;;;;;;;11.05;6.22;;;;;;;;;;4995137;28;20114;-60
2023/07/09 03:03:55;;;;;;;14.43;5.95;;;;;;;;;;4990580;28;20042;-60
2023/07/09 03:06:23;;;;;;;11.50;6.43;;;;;;;;;;4990859;28;20049;-60
2023/07/09 03:08:49;;;;;;;15.80;6.65;;;;;;;;;;4983565;28;20496;-59
2023/07/09 03:11:16;;;;;;;16.85;6.15;;;;;;;;;;4986857;28;20039;-59
2023/07/09 03:13:43;;;;;;;13.93;6.65;;;;;;;;;;5008087;28;20034;-59
2023/07/09 03:16:10;;;;;;;14.35;6.35;;;;;;;;;;4996620;28;20038;-59
2023/07/09 03:18:36;;;;;;;15.15;6.53;;;;;;;;;;4994350;28;20045;-59
2023/07/09 03:21:03;;;;;;;15.73;5.90;;;;;;;;;;4984593;28;20046;-59
2023/07/09 03:23:29;;;;;;;15.68;6.70;;;;;;;;;;4986672;28;20654;-59
2023/07/09 03:25:55;;;;;;;18.17;7.13;;;;;;;;;;4985496;28;20526;-60
2023/07/09 03:28:22;;;;;;;16.58;7.28;;;;;;;;;;4984200;28;20061;-60
2023/07/09 03:30:52;;;;;;;14.02;7.35;;;;;;;;;;4989385;28;20476;-60
2023/07/09 03:33:18;;;;;;;13.13;7.07;;;;;;;;;;4982278;28;20412;-60
2023/07/09 03:35:44;;;;;;;15.10;7.13;;;;;;;;;;4982747;28;20440;-59
2023/07/09 03:38:11;;;;;;;18.20;7.38;;;;;;;;;;4991691;28;20026;-59
2023/07/09 03:40:38;;;;;;;16.48;6.63;;;;;;;;;;4983343;28;20039;-60
2023/07/09 03:43:05;;;;;;;15.10;6.75;;;;;;;;;;4984524;28;20037;-59
2023/07/09 03:45:35;;;;;;;12.30;6.70;;;;;;;;;;4996394;28;20048;-59
2023/07/09 03:48:02;;;;;;;13.98;7.00;;;;;;;;;;4991998;28;20507;-59
2023/07/09 03:50:28;;;;;;;20.60;7.45;;;;;;;;;;4986072;28;20050;-59
2023/07/09 03:52:54;;;;;;;12.98;6.75;;;;;;;;;;4989115;28;20030;-59
2023/07/09 03:55:20;;;;;;;15.40;7.32;;;;;;;;;;4984258;28;20050;-59
2023/07/09 03:57:47;;;;;;;19.00;7.30;;;;;;;;;;4993973;28;20030;-59
2023/07/09 04:00:14;;;;;;;17.15;7.43;;;;;;;;;;4991575;28;20741;-59
2023/07/09 04:02:45;;;;;;;13.05;7.03;;;;;;;;;;4990421;28;20038;-59
2023/07/09 04:05:12;;;;;;;19.65;7.85;;;;;;;;;;4992020;28;20427;-59
2023/07/09 04:07:38;;;;;;;18.77;7.40;;;;;;;;;;4992596;28;20040;-59
2023/07/09 04:10:05;;;;;;;17.80;7.43;;;;;;;;;;4987200;28;20047;-59
2023/07/09 04:12:31;;;;;;;14.73;7.13;;;;;;;;;;4985350;28;20046;-59
2023/07/09 04:14:58;;;;;;;17.08;7.93;;;;;;;;;;4989970;28;20033;-59
2023/07/09 04:17:24;;;;;;;15.00;7.47;;;;;;;;;;4997115;28;20026;-59
2023/07/09 04:19:50;;;;;;;17.27;7.88;;;;;;;;;;4993610;28;20034;-59
2023/07/09 04:22:17;;;;;;;15.88;7.40;;;;;;;;;;4982709;28;20042;-59
2023/07/09 04:24:44;;;;;;;18.38;7.53;;;;;;;;;;4989268;28;20042;-60
2023/07/09 04:27:10;;;;;;;17.13;7.90;;;;;;;;;;4992646;28;20037;-59
2023/07/09 04:29:38;;;;;;;13.50;7.32;;;;;;;;;;4982156;28;20427;-59
2023/07/09 04:32:06;;;;;;;22.20;8.02;;;;;;;;;;4988707;28;20161;-59
2023/07/09 04:34:32;;;;;;;17.67;7.53;;;;;;;;;;4987659;28;20041;-59
2023/07/09 04:36:58;;;;;;;18.38;8.60;;;;;;;;;;4993139;28;20403;-60
2023/07/09 04:39:25;;;;;;;19.65;8.23;;;;;;;;;;4997969;28;20038;-60
2023/07/09 04:41:51;;;;;;;20.17;8.15;;;;;;;;;;4989181;28;20046;-59
2023/07/09 04:44:17;;;;;;;19.92;7.95;;;;;;;;;;4988808;28;20037;-60
2023/07/09 04:46:43;;;;;;;20.08;8.18;;;;;;;;;;4991613;28;20061;-60
2023/07/09 04:49:12;;;;;;;18.83;8.63;;;;;;;;;;4991290;28;20041;-60
2023/07/09 04:51:38;;;;;;;22.15;9.02;;;;;;;;;;4982600;28;20034;-60
2023/07/09 04:54:04;;;;;;;22.58;8.88;;;;;;;;;;4991187;28;20034;-60
2023/07/09 04:56:30;;;;;;;27.15;9.90;;;;;;;;;;4988503;28;20451;-59
2023/07/09 04:58:57;;;;;;;22.42;9.20;;;;;;;;;;4992331;28;20041;-60
2023/07/09 05:01:23;;;;;;;18.17;9.20;;;;;;;;;;4994304;28;20475;-60
2023/07/09 05:03:50;;;;;;;18.50;8.93;;;;;;;;;;4993863;28;20030;-60
2023/07/09 05:06:16;;;;;;;23.13;9.32;;;;;;;;;;4995080;28;20515;-60
2023/07/09 05:08:42;;;;;;;23.50;9.68;;;;;;;;;;4987508;28;20138;-60
2023/07/09 05:11:10;;;;;;;22.10;9.98;;;;;;;;;;4988817;28;20035;-59
2023/07/09 05:13:36;;;;;;;22.52;9.40;;;;;;;;;;4982287;28;20055;-58
2023/07/09 05:16:03;;;;;;;24.40;9.57;;;;;;;;;;4989840;28;20038;-60
2023/07/09 05:18:29;;;;;;;21.98;9.50;;;;;;;;;;4990286;28;20026;-60
2023/07/09 05:20:55;;;;;;;22.10;9.48;;;;;;;;;;4989686;28;20064;-59
2023/07/09 05:23:24;;;;;;;23.60;10.20;;;;;;;;;;4988679;28;20034;-59
2023/07/09 05:26:01;;;;;;;22.17;9.32;;;;;;;;;;4989256;28;20419;-59
2023/07/09 05:28:29;;;;;;;19.42;9.10;;;;;;;;;;4991673;28;20034;-59
2023/07/09 05:30:55;;;;;;;21.27;8.95;;;;;;;;;;4991366;28;20050;-60
2023/07/09 05:33:21;;;;;;;22.48;9.57;;;;;;;;;;4995275;28;20042;-59
2023/07/09 05:35:48;;;;;;;23.40;8.77;;;;;;;;;;4990875;28;20049;-60
2023/07/09 05:38:14;;;;;;;20.52;8.85;;;;;;;;;;4986102;28;20035;-59
2023/07/09 05:40:42;;;;;;;24.38;8.52;;;;;;;;;;4991248;28;20038;-59
2023/07/09 05:43:09;;;;;;;17.67;8.65;;;;;;;;;;4995470;28;20045;-59
2023/07/09 05:45:38;;;;;;;17.95;8.25;;;;;;;;;;4989553;28;20038;-59
2023/07/09 05:48:04;;;;;;;16.47;8.37;;;;;;;;;;4995326;28;20050;-58
2023/07/09 05:50:33;;;;;;;17.08;8.13;;;;;;;;;;5000649;28;20425;-59
2023/07/09 05:53:00;;;;;;;12.57;5.85;;;;;;;;;;4990094;28;20415;-60
2023/07/09 05:55:26;;;;;;;11.38;5.97;;;;;;;;;;4989074;28;20046;-59
2023/07/09 05:57:53;;;;;;;13.90;6.00;;;;;;;;;;4977326;28;20423;-59
2023/07/09 06:00:19;;;;;;;14.50;6.90;;;;;;;;;;4996163;28;20033;-60
2023/07/09 06:02:45;;;;;;;14.52;6.82;;;;;;;;;;4989362;28;20050;-59
2023/07/09 06:05:12;;;;;;;14.52;6.38;;;;;;;;;;4988273;28;20038;-60
2023/07/09 06:07:39;;;;;;;13.60;6.65;;;;;;;;;;4986369;28;20041;-60
2023/07/09 06:10:07;;;;;;;15.48;6.97;;;;;;;;;;4991711;28;20129;-61
2023/07/09 06:12:34;;;;;;;15.20;6.63;;;;;;;;;;4994799;28;20030;-61
2023/07/09 06:15:00;;;;;;;17.70;7.63;;;;;;;;;;4990634;28;20048;-60
2023/07/09 06:17:26;;;;;;;13.70;7.05;;;;;;;;;;4998173;28;20043;-60
2023/07/09 06:19:52;;;;;;;13.93;7.03;;;;;;;;;;4999687;28;20434;-60
2023/07/09 06:22:18;;;;;;;16.20;6.85;;;;;;;;;;4993201;28;20041;-60
2023/07/09 06:24:45;;;;;;;14.40;7.43;;;;;;;;;;4993887;28;20053;-61
2023/07/09 06:27:11;;;;;;;15.15;6.95;;;;;;;;;;4993140;28;20452;-60
2023/07/09 06:29:37;;;;;;;14.15;7.05;;;;;;;;;;4994616;28;20046;-59
2023/07/09 06:32:04;;;;;;;14.40;7.03;;;;;;;;;;4988365;28;20037;-57
2023/07/09 06:34:31;;;;;;;11.35;6.70;;;;;;;;;;4987619;28;20030;-59
2023/07/09 06:36:57;;;;;;;16.48;6.78;;;;;;;;;;4992235;28;20508;-59
2023/07/09 06:39:23;;;;;;;13.70;6.30;;;;;;;;;;4989585;28;20508;-59
2023/07/09 06:41:49;;;;;;;10.20;6.55;;;;;;;;;;4983307;28;20428;-59
2023/07/09 06:44:47;;;;;;;15.70;6.83;;;;;;;;;;4986802;28;20030;-59
2023/07/09 06:47:14;;;;;;;13.52;6.53;;;;;;;;;;4994598;28;20041;-59
2023/07/09 06:49:40;;;;;;;12.93;7.03;;;;;;;;;;4982249;28;20039;-59
2023/07/09 06:52:06;;;;;;;14.55;7.10;;;;;;;;;;4986845;28;21649;-59
2023/07/09 06:54:32;;;;;;;12.00;6.80;;;;;;;;;;4984396;28;20063;-59
2023/07/09 06:56:58;;;;;;;11.50;6.53;;;;;;;;;;4982539;28;20050;-59
2023/07/09 06:59:24;;;;;;;16.02;7.50;;;;;;;;;;4983242;28;20041;-59
2023/07/09 07:01:51;;;;;;;14.55;6.85;;;;;;;;;;4983932;28;20034;-59
2023/07/09 07:04:17;;;;;;;13.55;6.60;;;;;;;;;;4987024;28;20034;-59
2023/07/09 07:06:44;;;;;;;13.23;6.25;;;;;;;;;;4986992;28;20046;-59
2023/07/09 07:09:10;;;;;;;13.95;6.80;;;;;;;;;;4969895;28;20510;-59
2023/07/09 07:11:36;;;;;;;12.55;6.93;;;;;;;;;;4986240;28;20519;-59
2023/07/09 07:14:03;;;;;;;13.85;6.43;;;;;;;;;;4987552;28;20046;-59
2023/07/09 07:16:29;;;;;;;13.55;6.53;;;;;;;;;;4980080;28;20023;-59
2023/07/09 07:18:55;;;;;;;12.77;7.22;;;;;;;;;;4982575;28;20496;-59
2023/07/09 07:21:21;;;;;;;13.98;7.50;;;;;;;;;;4986146;28;20049;-59
2023/07/09 07:23:47;;;;;;;17.58;7.82;;;;;;;;;;4981304;28;20149;-59
2023/07/09 07:26:14;;;;;;;14.25;7.40;;;;;;;;;;4976719;28;20527;-59
2023/07/09 07:28:40;;;;;;;12.90;7.38;;;;;;;;;;4984285;28;20038;-59
2023/07/09 07:31:08;;;;;;;13.10;7.25;;;;;;;;;;4993140;28;20033;-59
2023/07/09 07:33:35;;;;;;;11.18;6.35;;;;;;;;;;4985204;28;20038;-59
2023/07/09 07:36:04;;;;;;;15.73;7.95;;;;;;;;;;4984315;28;20404;-59
2023/07/09 07:38:30;;;;;;;14.02;7.25;;;;;;;;;;4990564;28;20042;-59
2023/07/09 07:40:56;;;;;;;19.95;7.32;;;;;;;;;;4988163;28;20061;-59
2023/07/09 07:43:23;;;;;;;20.30;7.97;;;;;;;;;;4979578;28;20041;-59
2023/07/09 07:45:49;;;;;;;18.20;7.75;;;;;;;;;;4978256;28;20069;-59
2023/07/09 07:48:16;;;;;;;13.90;7.80;;;;;;;;;;4982956;28;20046;-60
2023/07/09 07:50:42;;;;;;;14.38;6.70;;;;;;;;;;4986035;28;20038;-59
2023/07/09 07:53:09;;;;;;;16.15;8.32;;;;;;;;;;4985113;28;20050;-59
2023/07/09 07:55:38;;;;;;;13.65;7.28;;;;;;;;;;4982340;28;20061;-59
2023/07/09 07:58:04;;;;;;;15.50;7.43;;;;;;;;;;4986155;28;20043;-60
2023/07/09 08:00:31;;;;;;;14.75;7.47;;;;;;;;;;4983848;28;20046;-59
2023/07/09 08:02:57;;;;;;;14.07;7.90;;;;;;;;;;4980198;28;20045;-59
2023/07/09 08:05:24;;;;;;;14.80;7.43;;;;;;;;;;4981822;28;20035;-60
2023/07/09 08:07:50;;;;;;;15.23;7.70;;;;;;;;;;4989383;28;20029;-60
2023/07/09 08:10:17;;;;;;;16.42;7.53;;;;;;;;;;4966077;28;20043;-59
2023/07/09 08:12:43;;;;;;;13.57;7.57;;;;;;;;;;4979300;28;20053;-59
2023/07/09 08:15:10;;;;;;;19.95;7.78;;;;;;;;;;4976929;28;20038;-59
2023/07/09 08:17:36;;;;;;;15.07;7.63;;;;;;;;;;4985583;28;20504;-60
2023/07/09 08:20:02;;;;;;;15.40;8.20;;;;;;;;;;4989535;28;20049;-60
2023/07/09 08:22:28;;;;;;;13.98;8.02;;;;;;;;;;4982941;28;20041;-59
2023/07/09 08:24:55;;;;;;;17.23;8.23;;;;;;;;;;4987816;28;20042;-60
2023/07/09 08:27:21;;;;;;;19.00;8.45;;;;;;;;;;4990493;28;20030;-60
2023/07/09 08:29:47;;;;;;;13.27;7.43;;;;;;;;;;4971701;28;20046;-61
2023/07/09 08:32:14;;;;;;;16.63;7.93;;;;;;;;;;4971302;28;20045;-60
2023/07/09 08:34:41;;;;;;;12.23;7.53;;;;;;;;;;4982227;28;20441;-60
2023/07/09 08:37:08;;;;;;;14.73;7.82;;;;;;;;;;4976502;28;20026;-60
2023/07/09 08:39:34;;;;;;;17.92;8.23;;;;;;;;;;4986059;28;20411;-60
2023/07/09 08:42:13;;;;;;;20.35;8.25;;;;;;;;;;4979366;28;20041;-60
2023/07/09 08:44:48;;;;;;;18.27;7.57;;;;;;;;;;4985465;28;20042;-60
2023/07/09 08:47:25;;;;;;;18.38;7.30;;;;;;;;;;4983730;28;20059;-60
2023/07/09 08:50:02;;;;;;;17.88;8.95;;;;;;;;;;4986877;28;20034;-60
2023/07/09 08:52:40;;;;;;;17.20;8.13;;;;;;;;;;4982427;28;20042;-60
2023/07/09 08:55:12;;;;;;;20.77;8.25;;;;;;;;;;4986652;28;20030;-60
2023/07/09 08:57:54;;;;;;;18.58;8.30;;;;;;;;;;4982891;28;20056;-60
2023/07/09 09:00:33;;;;;;;19.27;7.93;;;;;;;;;;4983598;28;20035;-59
2023/07/09 09:03:12;;;;;;;18.48;9.10;;;;;;;;;;4983416;28;20030;-60
2023/07/09 09:05:43;;;;;;;18.65;8.10;;;;;;;;;;4976198;28;20404;-60
2023/07/09 09:08:32;;;;;;;18.55;8.15;;;;;;;;;;4982996;28;20039;-60
2023/07/09 09:11:17;;;;;;;19.45;8.73;;;;;;;;;;4983276;28;20582;-60
2023/07/09 09:13:45;;;;;;;21.50;8.48;;;;;;;;;;4978588;28;20046;-60
2023/07/09 09:16:23;;;;;;;13.63;7.70;;;;;;;;;;4987603;28;20403;-59
2023/07/09 09:18:49;;;;;;;18.17;8.57;;;;;;;;;;4982868;28;20506;-60
2023/07/09 09:21:34;;;;;;;19.60;8.40;;;;;;;;;;4985186;28;20046;-60
2023/07/09 09:24:19;;;;;;;20.73;8.10;;;;;;;;;;4987581;28;20023;-60
2023/07/09 09:26:48;;;;;;;20.25;8.60;;;;;;;;;;4985519;28;20043;-60
2023/07/09 09:29:16;;;;;;;18.80;7.97;;;;;;;;;;4986496;28;20041;-59
2023/07/09 09:31:50;;;;;;;14.98;8.18;;;;;;;;;;4985611;28;20050;-59
2023/07/09 09:34:21;;;;;;;17.40;8.27;;;;;;;;;;4985001;28;20046;-60
2023/07/09 09:36:48;;;;;;;17.42;8.10;;;;;;;;;;4978735;28;20030;-59
2023/07/09 09:39:14;;;;;;;15.18;7.55;;;;;;;;;;4976880;28;20053;-60
2023/07/09 09:41:43;;;;;;;14.60;8.55;;;;;;;;;;4974875;28;20047;-59
2023/07/09 09:44:29;;;;;;;16.42;7.93;;;;;;;;;;4987360;28;20404;-60
2023/07/09 09:46:58;;;;;;;17.77;7.65;;;;;;;;;;4987773;28;20046;-59
2023/07/09 09:49:25;;;;;;;16.40;8.23;;;;;;;;;;4983109;28;20035;-59
2023/07/09 09:51:51;;;;;;;21.90;7.78;;;;;;;;;;4976464;28;20404;-60
2023/07/09 09:54:20;;;;;;;15.35;8.18;;;;;;;;;;4978090;28;20042;-60
2023/07/09 09:56:50;;;;;;;12.77;7.40;;;;;;;;;;4981470;28;20050;-60
2023/07/09 09:59:24;;;;;;;15.15;7.80;;;;;;;;;;4980088;28;20031;-59
2023/07/09 10:01:58;;;;;;;14.35;7.53;;;;;;;;;;4986517;28;20046;-60
2023/07/09 10:04:24;;;;;;;17.23;10.32;;;;;;;;;;4979550;28;20057;-60
2023/07/09 10:06:56;;;;;;;15.27;8.32;;;;;;;;;;4984278;28;20038;-60
2023/07/09 10:09:45;;;;;;;16.98;7.80;;;;;;;;;;4982537;28;20493;-59
2023/07/09 10:12:18;;;;;;;16.73;7.18;;;;;;;;;;4986727;28;20053;-60
2023/07/09 10:14:50;;;;;;;18.23;7.47;;;;;;;;;;4981528;28;20053;-59
2023/07/09 10:17:27;;;;;;;15.15;7.97;;;;;;;;;;4984941;28;20061;-60
2023/07/09 10:19:57;;;;;;;14.23;7.07;;;;;;;;;;4984380;28;20041;-60
2023/07/09 10:22:40;;;;;;;16.27;7.45;;;;;;;;;;4998880;28;20399;-60
2023/07/09 10:25:41;;;;;;;15.35;7.63;;;;;;;;;;4986189;28;20030;-60
2023/07/09 10:28:21;;;;;;;13.80;7.20;;;;;;;;;;4970751;28;20049;-60
2023/07/09 10:31:25;;;;;;;13.00;6.85;;;;;;;;;;4980660;28;20392;-59
2023/07/09 10:34:28;;;;;;;20.08;7.40;;;;;;;;;;4976800;28;20073;-59
2023/07/09 10:37:42;;;;;;;13.23;7.35;;;;;;;;;;4968707;28;20420;-60
2023/07/09 10:40:13;;;;;;;15.00;7.25;;;;;;;;;;4945935;28;20120;-61
2023/07/09 10:42:44;;;;;;;15.60;7.47;;;;;;;;;;4975751;28;20417;-60
2023/07/09 10:45:20;;;;;;;18.00;7.82;;;;;;;;;;4987212;28;20046;-60
2023/07/09 10:47:58;;;;;;;12.45;7.03;;;;;;;;;;4986624;28;20045;-60
2023/07/09 10:50:35;;;;;;;;;;;;;;;;;;4983366;28;20034;-60
2023/07/09 10:53:38;;;;;;;15.45;7.60;;;;;;;;;;4990480;28;19914;-60
2023/07/09 10:56:22;;;;;;;13.63;6.82;;;;;;;;;;4917986;28;20102;-60
2023/07/09 10:59:20;;;;;;;17.42;7.85;;;;;;;;;;4976806;28;20061;-60
2023/07/09 11:01:49;;;;;;;;;;;;;;;;;;4979881;28;20050;-60
2023/07/09 11:04:28;;;;;;;12.38;6.93;;;;;;;;;;4986446;28;19921;-60
2023/07/09 11:06:58;;;;;;;16.90;7.43;;;;;;;;;;4980984;28;20050;-61
2023/07/09 11:09:30;;;;;;;13.43;6.47;;;;;;;;;;4983005;28;20369;-60
2023/07/09 11:12:02;;;;;;;14.93;7.13;;;;;;;;;;4989465;28;20042;-60
2023/07/09 11:14:34;;;;;;;14.75;6.82;;;;;;;;;;4989302;28;20041;-61
2023/07/09 11:17:01;;;;;;;11.80;6.63;;;;;;;;;;4990956;28;20064;-60
2023/07/09 11:19:28;;;;;;;9.80;6.15;;;;;;;;;;4992959;28;20054;-60
2023/07/09 11:22:12;;;;;;;11.57;6.53;;;;;;;;;;4986666;28;20424;-60
2023/07/09 11:25:04;;;;;;;17.58;7.00;;;;;;;;;;4984497;28;20404;-60
2023/07/09 11:27:30;;;;;;;16.35;6.80;;;;;;;;;;4988694;28;20045;-60
2023/07/09 11:30:21;;;;;;;13.27;6.97;;;;;;;;;;4988186;28;20102;-60
2023/07/09 11:32:53;;;;;;;13.80;7.00;;;;;;;;;;4978143;28;20046;-61
2023/07/09 11:35:25;;;;;;;14.05;7.05;;;;;;;;;;4984215;28;20507;-60
2023/07/09 11:37:55;;;;;;;12.27;6.20;;;;;;;;;;4983914;28;20054;-60
2023/07/09 11:40:22;;;;;;;13.38;7.40;;;;;;;;;;4982505;28;20042;-60
2023/07/09 11:42:58;;;;;;;16.55;6.70;;;;;;;;;;4989850;28;20034;-60
2023/07/09 11:45:44;;;;;;;12.60;7.05;;;;;;;;;;4989812;28;20054;-61
2023/07/09 11:48:39;;;;;;;14.65;6.70;;;;;;;;;;4976320;28;20051;-61
2023/07/09 11:51:14;;;;;;;15.23;6.68;;;;;;;;;;4981456;28;20061;-60
2023/07/09 11:53:53;;;;;;;13.88;6.68;;;;;;;;;;4975344;28;20431;-61
2023/07/09 11:56:22;;;;;;;16.02;5.95;;;;;;;;;;4979732;28;20045;-61
2023/07/09 11:58:50;;;;;;;12.82;6.20;;;;;;;;;;4978393;28;20408;-61
2023/07/09 12:01:20;;;;;;;10.82;5.55;;;;;;;;;;4978634;28;20026;-60
2023/07/09 12:03:48;;;;;;;13.77;6.10;;;;;;;;;;4982598;28;20420;-60
2023/07/09 12:06:26;;;;;;;15.88;6.07;;;;;;;;;;4992115;28;20565;-61
2023/07/09 12:08:53;;;;;;;13.95;6.30;;;;;;;;;;4978560;28;20413;-61
2023/07/09 12:11:28;;;;;;;12.95;6.18;;;;;;;;;;4979280;28;20038;-61
2023/07/09 12:14:05;;;;;;;12.63;5.60;;;;;;;;;;4998621;28;20522;-60
2023/07/09 12:16:41;;;;;;;15.25;6.45;;;;;;;;;;4988403;28;20045;-60
2023/07/09 12:19:10;;;;;;;13.07;5.97;;;;;;;;;;4984750;28;20409;-61
2023/07/09 12:21:38;;;;;;;13.73;6.40;;;;;;;;;;4983992;28;20053;-61
2023/07/09 12:24:21;;;;;;;14.02;6.53;;;;;;;;;;4986101;28;20045;-61
2023/07/09 12:26:49;;;;;;;14.18;5.93;;;;;;;;;;4983714;28;20038;-60
2023/07/09 12:29:15;;;;;;;15.98;5.95;;;;;;;;;;4983147;28;20038;-60
2023/07/09 12:31:41;;;;;;;12.30;6.45;;;;;;;;;;4973128;28;20051;-61
2023/07/09 12:34:14;;;;;;;12.88;5.93;;;;;;;;;;4983881;28;20052;-61
2023/07/09 12:36:45;;;;;;;11.45;5.78;;;;;;;;;;4990658;28;20050;-61
2023/07/09 12:39:13;;;;;;;10.98;5.63;;;;;;;;;;4989926;28;20029;-61
2023/07/09 12:41:40;;;;;;;;;;;;;;;;;;4988251;28;20038;-62
2023/07/09 12:44:17;;;;;;;16.00;6.75;;;;;;;;;;4990102;28;19921;-61
2023/07/09 12:46:45;;;;;;;9.82;5.35;;;;;;;;;;4988820;28;20053;-62
2023/07/09 12:49:40;;;;;;;15.55;6.30;;;;;;;;;;4980893;28;20034;-61
2023/07/09 12:52:19;;;;;;;12.40;5.78;;;;;;;;;;4978798;28;20054;-61
2023/07/09 12:55:00;;;;;;;11.73;6.20;;;;;;;;;;4987872;28;20053;-61
2023/07/09 12:57:27;;;;;;;15.20;6.90;;;;;;;;;;4980213;28;20035;-62
2023/07/09 12:59:55;;;;;;;12.70;6.22;;;;;;;;;;4979207;28;20156;-61
2023/07/09 13:02:24;;;;;;;14.07;6.50;;;;;;;;;;4977387;28;20039;-60
2023/07/09 13:05:00;;;;;;;10.00;5.40;;;;;;;;;;4989211;28;20041;-61
2023/07/09 13:07:33;;;;;;;11.25;6.13;;;;;;;;;;4995007;28;20515;-59
2023/07/09 13:10:05;;;;;;;11.13;5.47;;;;;;;;;;4987008;28;20061;-61
2023/07/09 13:12:33;;;;;;;12.75;5.45;;;;;;;;;;4985281;28;20049;-61
2023/07/09 13:15:00;;;;;;;11.73;5.85;;;;;;;;;;4986787;28;20041;-61
2023/07/09 13:17:30;;;;;;;13.83;6.00;;;;;;;;;;4987485;28;20624;-62
2023/07/09 13:19:57;;;;;;;13.13;5.55;;;;;;;;;;4975911;28;20045;-62
2023/07/09 13:22:24;;;;;;;13.50;5.78;;;;;;;;;;4975327;28;20046;-62
2023/07/09 13:24:51;;;;;;;13.40;5.57;;;;;;;;;;4980075;28;20439;-61
2023/07/09 13:27:17;;;;;;;11.70;5.57;;;;;;;;;;4991198;28;20030;-62
2023/07/09 13:29:44;;;;;;;13.23;5.57;;;;;;;;;;4982665;28;20039;-62
2023/07/09 13:32:11;;;;;;;12.10;5.53;;;;;;;;;;4978417;28;20043;-61
2023/07/09 13:34:39;;;;;;;14.60;5.72;;;;;;;;;;4990360;28;20034;-62
2023/07/09 13:37:09;;;;;;;14.57;5.60;;;;;;;;;;4999061;28;20038;-62
2023/07/09 13:39:35;;;;;;;12.98;5.88;;;;;;;;;;4983645;28;20050;-62
2023/07/09 13:42:01;;;;;;;11.52;5.50;;;;;;;;;;4977300;28;20061;-62
2023/07/09 13:44:30;;;;;;;13.52;5.75;;;;;;;;;;4988309;28;20034;-61
2023/07/09 13:46:57;;;;;;;12.55;5.20;;;;;;;;;;4989330;28;20038;-62
2023/07/09 13:49:25;;;;;;;8.45;5.63;;;;;;;;;;4984485;28;20566;-62
2023/07/09 13:51:56;;;;;;;12.68;5.72;;;;;;;;;;4984596;28;20449;-61
2023/07/09 13:54:35;;;;;;;14.68;5.57;;;;;;;;;;4991637;28;20423;-62
2023/07/09 13:57:03;;;;;;;11.73;5.55;;;;;;;;;;4998241;28;20035;-61
2023/07/09 13:59:30;;;;;;;11.15;5.95;;;;;;;;;;4984125;28;20474;-62
2023/07/09 14:01:58;;;;;;;12.50;5.50;;;;;;;;;;4988603;28;20407;-62
2023/07/09 14:04:25;;;;;;;;;;;;;;;;;;4990731;28;20047;-62
2023/07/09 14:06:51;;;;;;;11.90;5.20;;;;;;;;;;4990233;28;19914;-63
2023/07/09 14:09:17;;;;;;;14.32;5.80;;;;;;;;;;4987064;28;20285;-62
2023/07/09 14:11:49;;;;;;;10.82;5.20;;;;;;;;;;4979969;28;20377;-62
2023/07/09 14:14:18;;;;;;;12.02;5.35;;;;;;;;;;4986940;28;20058;-62
2023/07/09 14:16:47;;;;;;;10.70;4.82;;;;;;;;;;4983178;28;20039;-62
2023/07/09 14:19:19;;;;;;;13.18;5.60;;;;;;;;;;4981034;28;20053;-62
2023/07/09 14:21:46;;;;;;;11.55;5.28;;;;;;;;;;4978656;28;20046;-62
2023/07/09 14:24:20;;;;;;;10.50;5.38;;;;;;;;;;4978861;28;20034;-62
2023/07/09 14:26:57;;;;;;;11.40;5.55;;;;;;;;;;4990185;28;20035;-63
2023/07/09 14:29:26;;;;;;;12.50;5.30;;;;;;;;;;4991586;28;20530;-63
2023/07/09 14:31:52;;;;;;;10.45;5.22;;;;;;;;;;4990793;28;20061;-63
2023/07/09 14:34:18;;;;;;;11.57;5.47;;;;;;;;;;4986146;28;20031;-61
2023/07/09 14:36:44;;;;;;;11.77;5.22;;;;;;;;;;4987200;28;20522;-62
2023/07/09 14:39:10;;;;;;;11.15;5.30;;;;;;;;;;4986440;28;20042;-62
2023/07/09 14:41:37;;;;;;;7.57;4.70;;;;;;;;;;4983392;28;20031;-62
2023/07/09 14:44:15;;;;;;;14.98;5.32;;;;;;;;;;4996438;28;20030;-62
2023/07/09 14:46:41;;;;;;;11.63;5.00;;;;;;;;;;4984000;28;20042;-62
2023/07/09 14:49:07;;;;;;;14.63;4.70;;;;;;;;;;4987872;28;20049;-61
2023/07/09 14:51:33;;;;;;;13.60;5.03;;;;;;;;;;4988372;28;20058;-62